Time;durP1;ratioP1;P1;durP2;ratioP2;P2;SDS_P1;SDS_P2;PMS_P1;PMS_P2;Temp;Humidity;BMP_temperature;BMP_pressure;BME280_temperature;BME280_humidity;BME280_pressure;Samples;Min_cycle;Max_cycle;Signal;HPM_P1;HPM_P2
2022/10/01 00:01:47;;;;;;;11.15;7.55;;;12.10;99.90;;;;;;5092778;28;20039;-72
2022/10/01 00:04:13;;;;;;;9.75;7.65;;;11.60;99.90;;;;;;5093069;28;20036;-72
2022/10/01 00:06:38;;;;;;;9.88;6.97;;;11.40;99.90;;;;;;5093069;28;20185;-72
2022/10/01 00:09:04;;;;;;;9.25;6.85;;;11.70;99.90;;;;;;5093219;28;20081;-72
2022/10/01 00:11:30;;;;;;;11.80;7.95;;;11.70;99.90;;;;;;5074618;28;20078;-72
2022/10/01 00:13:56;;;;;;;11.02;8.10;;;11.30;99.90;;;;;;5092942;28;20556;-72
2022/10/01 00:16:26;;;;;;;10.45;8.43;;;11.30;99.90;;;;;;5092708;28;20054;-72
2022/10/01 00:18:53;;;;;;;10.27;7.80;;;12.30;99.90;;;;;;5092960;28;20067;-72
2022/10/01 00:21:25;;;;;;;9.27;7.55;;;11.50;99.90;;;;;;5074567;28;20048;-72
2022/10/01 00:23:55;;;;;;;10.65;8.10;;;11.30;99.90;;;;;;5092853;28;20051;-72
2022/10/01 00:26:25;;;;;;;12.10;8.82;;;11.20;99.90;;;;;;5074638;28;20455;-73
2022/10/01 00:29:06;;;;;;;11.38;7.97;;;11.50;99.90;;;;;;5092905;28;20090;-72
2022/10/01 00:31:31;;;;;;;11.57;8.82;;;11.30;99.90;;;;;;5092124;28;20059;-72
2022/10/01 00:33:59;;;;;;;12.13;8.77;;;11.20;99.90;;;;;;5057887;28;20048;-72
2022/10/01 00:36:26;;;;;;;12.07;9.48;;;11.20;99.90;;;;;;5092549;28;20044;-72
2022/10/01 00:38:51;;;;;;;12.27;9.57;;;11.20;99.90;;;;;;5112181;28;20065;-72
2022/10/01 00:41:18;;;;;;;11.85;9.57;;;11.20;99.90;;;;;;5100097;28;20489;-72
2022/10/01 00:43:46;;;;;;;14.05;10.20;;;11.20;99.90;;;;;;5102683;28;20075;-72
2022/10/01 00:46:16;;;;;;;13.55;9.77;;;12.30;99.90;;;;;;5112759;28;20039;-72
2022/10/01 00:49:14;;;;;;;14.40;11.30;;;11.20;99.90;;;;;;5113118;28;20134;-72
2022/10/01 00:51:44;;;;;;;13.15;10.30;;;11.10;99.90;;;;;;5080881;28;20043;-72
2022/10/01 00:54:21;;;;;;;11.80;10.20;;;12.40;99.90;;;;;;5094522;28;20044;-72
2022/10/01 00:56:52;;;;;;;14.63;11.10;;;11.00;99.90;;;;;;5112691;28;20376;-73
2022/10/01 00:59:19;;;;;;;15.57;10.68;;;11.10;99.90;;;;;;5094497;28;20035;-72
2022/10/01 01:01:44;;;;;;;13.45;11.15;;;12.10;99.90;;;;;;5111719;28;20345;-72
2022/10/01 01:04:16;;;;;;;14.63;11.35;;;11.10;99.90;;;;;;5113085;28;20047;-72
2022/10/01 01:06:52;;;;;;;15.23;11.75;;;11.10;99.90;;;;;;5112414;28;20031;-71
2022/10/01 01:09:19;;;;;;;16.65;11.80;;;11.80;99.90;;;;;;5088068;28;20044;-72
2022/10/01 01:12:00;;;;;;;15.27;11.30;;;11.00;99.90;;;;;;5073926;28;20104;-72
2022/10/01 01:14:39;;;;;;;14.35;11.68;;;11.00;99.90;;;;;;5092282;28;20036;-72
2022/10/01 01:17:18;;;;;;;10.02;7.43;;;11.20;99.90;;;;;;5073907;28;20123;-71
2022/10/01 01:19:48;;;;;;;12.05;10.68;;;12.00;99.90;;;;;;5074107;28;20118;-72
2022/10/01 01:22:18;;;;;;;14.93;11.77;;;10.90;99.90;;;;;;5057022;28;20044;-71
2022/10/01 01:24:54;;;;;;;14.57;10.95;;;12.20;99.90;;;;;;5092388;28;20051;-72
2022/10/01 01:27:42;;;;;;;14.68;10.65;;;10.90;99.90;;;;;;5072959;28;20044;-72
2022/10/01 01:30:12;;;;;;;15.07;10.88;;;10.90;99.90;;;;;;5092076;28;20456;-72
2022/10/01 01:32:51;;;;;;;14.77;10.15;;;10.80;99.90;;;;;;5091613;28;20055;-72
2022/10/01 01:35:43;;;;;;;13.43;10.57;;;10.80;99.90;;;;;;5092227;28;20052;-72
2022/10/01 01:38:13;;;;;;;15.55;10.98;;;10.80;99.90;;;;;;5078818;28;20505;-72
2022/10/01 01:40:41;;;;;;;16.10;11.02;;;11.10;99.90;;;;;;5095497;28;20070;-73
2022/10/01 01:43:12;;;;;;;15.73;11.77;;;10.70;99.90;;;;;;5100365;28;20036;-72
2022/10/01 01:45:39;;;;;;;15.07;11.40;;;11.00;99.90;;;;;;5115856;28;20557;-73
2022/10/01 01:48:08;;;;;;;15.57;9.73;;;10.70;99.90;;;;;;5090742;28;20052;-72
2022/10/01 01:50:41;;;;;;;14.25;11.55;;;11.70;99.90;;;;;;5094004;28;20040;-72
2022/10/01 01:53:06;;;;;;;15.35;11.82;;;10.70;99.90;;;;;;5075743;28;20404;-72
2022/10/01 01:55:35;;;;;;;14.02;10.95;;;10.80;99.90;;;;;;5093661;28;20123;-72
2022/10/01 01:58:02;;;;;;;15.50;11.45;;;10.70;99.90;;;;;;5095723;28;20043;-73
2022/10/01 02:00:28;;;;;;;16.10;12.55;;;10.60;99.90;;;;;;5076872;28;20051;-73
2022/10/01 02:02:56;;;;;;;13.38;9.55;;;10.60;99.90;;;;;;5095293;28;20044;-73
2022/10/01 02:05:51;;;;;;;17.13;11.40;;;10.60;99.90;;;;;;5095467;28;20113;-74
2022/10/01 02:08:33;;;;;;;14.52;11.18;;;10.60;99.90;;;;;;5076834;28;20083;-73
2022/10/01 02:11:23;;;;;;;17.95;12.75;;;10.60;99.90;;;;;;5094993;28;20044;-73
2022/10/01 02:13:59;;;;;;;16.98;11.38;;;10.60;99.90;;;;;;5094092;28;20093;-73
2022/10/01 02:16:47;;;;;;;16.45;12.20;;;11.80;99.90;;;;;;5079911;28;20044;-73
2022/10/01 02:19:35;;;;;;;13.95;9.73;;;10.60;99.90;;;;;;5078138;28;20083;-73
2022/10/01 02:22:00;;;;;;;17.08;12.02;;;10.60;99.90;;;;;;5113898;28;20381;-73
2022/10/01 02:24:42;;;;;;;13.77;10.82;;;10.60;99.90;;;;;;5080050;28;20134;-73
2022/10/01 02:27:15;;;;;;;11.82;9.20;;;10.60;99.90;;;;;;5112956;28;20093;-73
2022/10/01 02:29:43;;;;;;;14.85;10.55;;;10.60;99.90;;;;;;5115528;28;20372;-73
2022/10/01 02:32:11;;;;;;;12.45;9.85;;;10.60;99.90;;;;;;5114531;28;20047;-73
2022/10/01 02:34:39;;;;;;;12.07;9.50;;;10.60;99.90;;;;;;5115140;28;20043;-74
2022/10/01 02:37:06;;;;;;;15.13;10.18;;;11.60;99.90;;;;;;5096620;28;20096;-73
2022/10/01 02:39:32;;;;;;;11.38;8.50;;;10.60;99.90;;;;;;5114966;28;20097;-73
2022/10/01 02:41:59;;;;;;;18.00;9.35;;;10.70;99.90;;;;;;5114753;28;20091;-73
2022/10/01 02:44:36;;;;;;;12.80;9.30;;;10.70;99.90;;;;;;5115054;28;20028;-73
2022/10/01 02:47:22;;;;;;;13.13;9.38;;;10.60;99.90;;;;;;5114582;28;20539;-73
2022/10/01 02:49:48;;;;;;;11.60;8.88;;;10.70;99.90;;;;;;5076543;28;20086;-73
2022/10/01 02:52:35;;;;;;;10.77;7.30;;;10.60;99.90;;;;;;5093831;28;20457;-73
2022/10/01 02:55:16;;;;;;;12.20;9.07;;;10.60;99.90;;;;;;5094633;28;20044;-73
2022/10/01 02:57:42;;;;;;;11.73;8.20;;;10.70;99.90;;;;;;5059307;28;20063;-73
2022/10/01 03:00:11;;;;;;;11.52;8.18;;;10.90;99.90;;;;;;5093488;28;20467;-73
2022/10/01 03:02:37;;;;;;;11.65;9.30;;;10.60;99.90;;;;;;5073346;28;20112;-73
2022/10/01 03:05:03;;;;;;;10.60;8.43;;;10.60;99.90;;;;;;5094307;28;20126;-73
2022/10/01 03:07:35;;;;;;;10.38;8.65;;;10.70;99.90;;;;;;5093959;28;20040;-73
2022/10/01 03:10:02;;;;;;;10.88;8.70;;;10.70;99.90;;;;;;5075851;28;20083;-72
2022/10/01 03:12:28;;;;;;;9.93;7.85;;;10.70;99.90;;;;;;5058887;28;20097;-73
2022/10/01 03:14:54;;;;;;;12.80;9.43;;;10.70;99.90;;;;;;5093998;28;20036;-72
2022/10/01 03:17:20;;;;;;;10.75;8.25;;;10.70;99.90;;;;;;5093634;28;20488;-73
2022/10/01 03:19:45;;;;;;;10.95;8.70;;;10.70;99.90;;;;;;5094219;28;20541;-72
2022/10/01 03:22:14;;;;;;;11.25;8.82;;;10.70;99.90;;;;;;5093571;28;20122;-73
2022/10/01 03:24:40;;;;;;;11.10;7.70;;;10.70;99.90;;;;;;5093959;28;20046;-73
2022/10/01 03:27:05;;;;;;;9.00;6.95;;;11.20;99.90;;;;;;5091832;28;20122;-73
2022/10/01 03:29:31;;;;;;;9.65;7.80;;;10.80;99.90;;;;;;5094675;28;20187;-73
2022/10/01 03:31:57;;;;;;;13.15;8.82;;;10.80;99.90;;;;;;5071378;28;20059;-72
2022/10/01 03:34:22;;;;;;;11.65;8.48;;;10.70;99.90;;;;;;5082117;28;20067;-72
2022/10/01 03:36:49;;;;;;;11.40;8.25;;;11.40;99.90;;;;;;5074130;28;20044;-73
2022/10/01 03:39:16;;;;;;;8.65;6.10;;;11.60;99.90;;;;;;5073486;28;20036;-72
2022/10/01 03:41:41;;;;;;;9.02;6.72;;;10.80;99.90;;;;;;5071594;28;20106;-72
2022/10/01 03:44:07;;;;;;;9.95;7.22;;;10.80;99.90;;;;;;5083816;28;20036;-72
2022/10/01 03:46:32;;;;;;;9.50;7.65;;;10.80;99.90;;;;;;5091947;28;20063;-73
2022/10/01 03:48:59;;;;;;;8.55;6.38;;;12.00;99.90;;;;;;5088628;28;20032;-72
2022/10/01 03:51:29;;;;;;;8.48;6.15;;;11.10;99.90;;;;;;5072675;28;20492;-73
2022/10/01 03:53:56;;;;;;;8.00;6.13;;;10.90;99.90;;;;;;5086400;28;20090;-72
2022/10/01 03:56:22;;;;;;;8.10;5.32;;;12.10;99.90;;;;;;5091531;28;20513;-72
2022/10/01 03:58:48;;;;;;;7.40;5.25;;;10.90;99.90;;;;;;5093282;28;20051;-72
2022/10/01 04:01:14;;;;;;;7.05;5.30;;;10.90;99.90;;;;;;5092477;28;20392;-72
2022/10/01 04:03:40;;;;;;;6.95;5.05;;;11.00;99.90;;;;;;5091839;28;20032;-72
2022/10/01 04:06:06;;;;;;;5.97;4.70;;;11.00;99.90;;;;;;5072240;28;20048;-72
2022/10/01 04:08:32;;;;;;;6.68;4.05;;;11.60;99.90;;;;;;5093357;28;20047;-72
2022/10/01 04:10:59;;;;;;;6.93;4.82;;;11.30;99.90;;;;;;5077905;28;20485;-72
2022/10/01 04:13:25;;;;;;;8.57;4.40;;;11.90;99.90;;;;;;5072912;28;20091;-72
2022/10/01 04:15:51;;;;;;;5.43;4.18;;;11.30;99.90;;;;;;5072684;28;20094;-72
2022/10/01 04:18:20;;;;;;;4.88;3.60;;;11.10;99.90;;;;;;5072594;28;20048;-73
2022/10/01 04:20:46;;;;;;;7.85;2.95;;;11.80;99.90;;;;;;5072735;28;20374;-72
2022/10/01 04:23:12;;;;;;;5.57;4.28;;;11.50;99.90;;;;;;5072583;28;20051;-73
2022/10/01 04:25:37;;;;;;;4.85;3.85;;;11.20;99.90;;;;;;5071162;28;20045;-73
2022/10/01 04:28:05;;;;;;;4.60;3.33;;;11.20;99.90;;;;;;5072719;28;20043;-72
2022/10/01 04:30:37;;;;;;;4.47;3.42;;;11.20;99.90;;;;;;5071082;28;20048;-73
2022/10/01 04:33:04;;;;;;;4.65;3.30;;;12.40;99.90;;;;;;5072298;28;20378;-72
2022/10/01 04:35:30;;;;;;;3.92;2.83;;;11.20;99.90;;;;;;5071329;28;20442;-72
2022/10/01 04:38:11;;;;;;;4.20;3.20;;;11.20;99.90;;;;;;5080966;28;20087;-72
2022/10/01 04:40:36;;;;;;;4.25;2.83;;;11.20;99.90;;;;;;5091696;28;20036;-72
2022/10/01 04:43:04;;;;;;;6.38;3.45;;;11.30;99.90;;;;;;5074456;28;20392;-73
2022/10/01 04:45:30;;;;;;;4.10;3.10;;;11.20;99.90;;;;;;5092425;28;20524;-73
2022/10/01 04:47:57;;;;;;;4.85;3.65;;;11.80;99.90;;;;;;5085689;28;20036;-72
2022/10/01 04:50:24;;;;;;;5.30;3.30;;;11.20;99.90;;;;;;5091903;28;20180;-72
2022/10/01 04:52:51;;;;;;;6.05;3.50;;;11.20;99.90;;;;;;5092277;28;20044;-72
2022/10/01 04:55:18;;;;;;;4.65;3.72;;;11.30;99.90;;;;;;5092923;28;20047;-75
2022/10/01 04:57:44;;;;;;;6.13;3.83;;;11.30;99.90;;;;;;5090974;28;20135;-73
2022/10/01 05:00:13;;;;;;;5.82;3.78;;;11.30;99.90;;;;;;5092682;28;20148;-74
2022/10/01 05:02:42;;;;;;;6.32;3.72;;;11.30;99.90;;;;;;5086973;28;20043;-73
2022/10/01 05:05:07;;;;;;;6.00;4.03;;;11.40;99.90;;;;;;5091185;28;20053;-73
2022/10/01 05:07:34;;;;;;;5.97;4.15;;;11.30;99.90;;;;;;5090224;28;20071;-74
2022/10/01 05:10:00;;;;;;;5.50;4.32;;;11.30;99.90;;;;;;5092411;28;20040;-73
2022/10/01 05:12:27;;;;;;;9.43;4.32;;;11.40;99.90;;;;;;5091452;28;20101;-74
2022/10/01 05:14:53;;;;;;;4.82;4.03;;;12.00;99.90;;;;;;5092782;28;20046;-72
2022/10/01 05:17:20;;;;;;;6.50;4.63;;;11.40;99.90;;;;;;5096009;28;20048;-73
2022/10/01 05:19:46;;;;;;;5.53;4.60;;;11.50;99.90;;;;;;5093744;28;20080;-73
2022/10/01 05:22:13;;;;;;;5.43;4.40;;;11.50;99.90;;;;;;5096038;28;20044;-73
2022/10/01 05:24:39;;;;;;;7.60;4.72;;;11.50;99.90;;;;;;5080944;28;20048;-73
2022/10/01 05:27:09;;;;;;;5.55;4.28;;;11.70;99.90;;;;;;5075266;28;20048;-73
2022/10/01 05:29:35;;;;;;;5.78;4.50;;;11.40;99.90;;;;;;5082640;28;20041;-73
2022/10/01 05:32:01;;;;;;;6.97;5.55;;;11.40;99.90;;;;;;5089774;28;20135;-73
2022/10/01 05:34:26;;;;;;;7.20;4.85;;;11.50;99.90;;;;;;5074151;28;20082;-73
2022/10/01 05:36:53;;;;;;;7.68;5.07;;;12.60;99.90;;;;;;5074063;28;20077;-73
2022/10/01 05:39:19;;;;;;;6.25;5.28;;;11.50;99.90;;;;;;5075711;28;20044;-73
2022/10/01 05:41:44;;;;;;;6.28;4.57;;;11.60;99.90;;;;;;5073657;28;20040;-73
2022/10/01 05:44:10;;;;;;;8.00;4.70;;;11.60;99.90;;;;;;5076429;28;20048;-73
2022/10/01 05:46:36;;;;;;;8.48;5.20;;;11.60;99.90;;;;;;5078982;28;20071;-73
2022/10/01 05:49:02;;;;;;;7.20;5.43;;;11.70;99.90;;;;;;5094062;28;20079;-73
2022/10/01 05:51:28;;;;;;;7.45;5.28;;;12.00;99.90;;;;;;5095427;28;20136;-73
2022/10/01 05:53:57;;;;;;;7.40;5.30;;;11.70;99.90;;;;;;5091891;28;20048;-72
2022/10/01 05:56:23;;;;;;;8.05;6.22;;;12.80;99.90;;;;;;5093848;28;20032;-72
2022/10/01 05:58:49;;;;;;;8.32;6.03;;;11.70;99.90;;;;;;5077502;28;20043;-72
2022/10/01 06:01:15;;;;;;;7.53;6.35;;;11.70;99.90;;;;;;5093524;28;20518;-73
2022/10/01 06:03:41;;;;;;;9.70;6.03;;;11.70;99.90;;;;;;5095211;28;20040;-73
2022/10/01 06:06:07;;;;;;;7.70;6.53;;;11.80;99.90;;;;;;5084860;28;20052;-73
2022/10/01 06:08:34;;;;;;;10.98;7.60;;;11.70;99.90;;;;;;5074577;28;20115;-73
2022/10/01 06:11:01;;;;;;;9.07;6.78;;;11.70;99.90;;;;;;5074651;28;20084;-72
2022/10/01 06:13:28;;;;;;;10.93;7.22;;;12.60;99.90;;;;;;5074900;28;20094;-73
2022/10/01 06:15:54;;;;;;;10.52;7.90;;;11.80;99.90;;;;;;5072199;28;20078;-72
2022/10/01 06:18:19;;;;;;;10.57;7.80;;;12.40;99.90;;;;;;5073897;28;20080;-73
2022/10/01 06:20:45;;;;;;;10.38;7.80;;;11.90;99.90;;;;;;5074351;28;20076;-73
2022/10/01 06:23:12;;;;;;;12.50;8.30;;;11.90;99.90;;;;;;5075404;28;20082;-73
2022/10/01 06:25:40;;;;;;;12.77;8.10;;;12.00;99.90;;;;;;5091419;28;20048;-73
2022/10/01 06:28:07;;;;;;;13.82;9.15;;;12.10;99.90;;;;;;5075492;28;20052;-74
2022/10/01 06:30:35;;;;;;;14.23;9.85;;;12.40;99.90;;;;;;5078785;28;20036;-73
2022/10/01 06:33:07;;;;;;;14.02;9.43;;;12.00;99.90;;;;;;5075635;28;20061;-73
2022/10/01 06:35:34;;;;;;;14.80;9.75;;;13.00;99.90;;;;;;5074640;28;20036;-73
2022/10/01 06:38:02;;;;;;;13.00;9.68;;;12.10;99.90;;;;;;5074513;28;20048;-73
2022/10/01 06:40:29;;;;;;;19.02;9.75;;;12.40;99.90;;;;;;5072893;28;20041;-73
2022/10/01 06:42:58;;;;;;;15.98;10.68;;;12.70;99.90;;;;;;5072944;28;20083;-73
2022/10/01 06:45:28;;;;;;;16.70;10.75;;;12.80;99.90;;;;;;5072882;28;20048;-74
2022/10/01 06:48:01;;;;;;;15.13;10.23;;;12.70;99.90;;;;;;5056326;28;20084;-73
2022/10/01 06:50:27;;;;;;;15.40;10.40;;;12.10;99.90;;;;;;5073301;28;20127;-73
2022/10/01 06:52:54;;;;;;;15.07;10.35;;;12.70;99.90;;;;;;5074004;28;20120;-73
2022/10/01 06:55:25;;;;;;;15.07;9.70;;;12.90;99.90;;;;;;5074258;28;20044;-73
2022/10/01 06:57:55;;;;;;;13.48;8.23;;;13.20;99.90;;;;;;5073121;28;20051;-74
2022/10/01 07:00:21;;;;;;;11.25;8.18;;;13.00;99.90;;;;;;5073893;28;20037;-73
2022/10/01 07:02:47;;;;;;;13.48;8.52;;;13.00;99.90;;;;;;5073390;28;20473;-73
2022/10/01 07:05:12;;;;;;;11.27;8.93;;;13.20;99.90;;;;;;5073921;28;20036;-73
2022/10/01 07:07:38;;;;;;;16.50;9.18;;;13.40;99.90;;;;;;5070311;28;20059;-73
2022/10/01 07:10:06;;;;;;;11.63;8.07;;;13.10;99.90;;;;;;5073359;28;20036;-73
2022/10/01 07:12:36;;;;;;;16.38;9.00;;;13.20;99.90;;;;;;5073215;28;20136;-73
2022/10/01 07:15:04;;;;;;;13.50;8.20;;;13.30;99.90;;;;;;5073682;28;20481;-73
2022/10/01 07:17:30;;;;;;;16.75;7.85;;;13.40;99.90;;;;;;5071346;28;20131;-73
2022/10/01 07:19:56;;;;;;;12.90;7.13;;;14.00;99.90;;;;;;5071693;28;20082;-73
2022/10/01 07:22:23;;;;;;;14.57;7.63;;;13.40;99.90;;;;;;5073490;28;20072;-73
2022/10/01 07:24:49;;;;;;;13.90;7.38;;;13.30;99.90;;;;;;5055608;28;20046;-73
2022/10/01 07:27:15;;;;;;;11.77;7.03;;;13.60;99.90;;;;;;5071620;28;20131;-73
2022/10/01 07:29:41;;;;;;;14.50;6.80;;;13.60;99.90;;;;;;5052943;28;20036;-73
2022/10/01 07:32:08;;;;;;;13.40;6.97;;;13.30;99.90;;;;;;5083966;28;20098;-73
2022/10/01 07:34:37;;;;;;;10.23;6.75;;;13.30;99.90;;;;;;5093142;28;20038;-74
2022/10/01 07:37:03;;;;;;;13.02;6.80;;;13.20;99.90;;;;;;5092671;28;20072;-73
2022/10/01 07:39:29;;;;;;;13.48;6.70;;;13.90;99.90;;;;;;5092206;28;20048;-73
2022/10/01 07:41:55;;;;;;;13.50;7.72;;;13.10;99.90;;;;;;5092730;28;20044;-73
2022/10/01 07:44:21;;;;;;;13.50;7.03;;;13.30;99.90;;;;;;5093355;28;20102;-74
2022/10/01 07:46:47;;;;;;;13.70;7.30;;;13.30;99.90;;;;;;5093411;28;20154;-73
2022/10/01 07:49:14;;;;;;;11.52;6.32;;;13.40;99.90;;;;;;5075149;28;20127;-73
2022/10/01 07:51:42;;;;;;;11.30;6.20;;;13.60;99.90;;;;;;5085347;28;20036;-73
2022/10/01 07:54:08;;;;;;;14.27;4.63;;;13.80;99.90;;;;;;5065454;28;20054;-73
2022/10/01 07:56:34;;;;;;;12.82;4.32;;;14.00;99.90;;;;;;5078072;28;20115;-74
2022/10/01 07:58:59;;;;;;;11.40;4.60;;;14.10;99.90;;;;;;5095868;28;20140;-73
2022/10/01 08:01:25;;;;;;;11.27;3.58;;;14.20;99.90;;;;;;5113163;28;20035;-73
2022/10/01 08:03:51;;;;;;;13.15;7.82;;;14.40;99.90;;;;;;5090820;28;20036;-73
2022/10/01 08:06:19;;;;;;;12.25;4.28;;;14.50;99.90;;;;;;5074536;28;20051;-75
2022/10/01 08:08:45;;;;;;;13.80;3.80;;;14.60;99.90;;;;;;5074988;28;20032;-75
2022/10/01 08:11:14;;;;;;;14.05;3.75;;;15.30;99.90;;;;;;5074300;28;20054;-76
2022/10/01 08:13:48;;;;;;;12.38;3.70;;;14.90;99.90;;;;;;5074471;28;20044;-77
2022/10/01 08:16:14;;;;;;;11.40;3.42;;;15.00;99.90;;;;;;5092977;28;20444;-76
2022/10/01 08:18:39;;;;;;;9.27;3.03;;;16.00;99.90;;;;;;5058829;28;20044;-76
2022/10/01 08:21:06;;;;;;;9.70;2.78;;;15.30;99.90;;;;;;5077626;28;20122;-77
2022/10/01 08:23:32;;;;;;;13.65;3.33;;;15.80;99.90;;;;;;5107046;28;20043;-77
2022/10/01 08:26:04;;;;;;;12.70;3.47;;;15.80;99.90;;;;;;5109059;28;20089;-75
2022/10/01 08:28:30;;;;;;;15.75;4.28;;;15.90;99.90;;;;;;5091833;28;20040;-76
2022/10/01 08:30:56;;;;;;;11.82;2.92;;;17.20;99.90;;;;;;5092587;28;20043;-76
2022/10/01 08:33:22;;;;;;;10.18;2.95;;;19.10;99.90;;;;;;5092582;28;20044;-77
2022/10/01 08:35:48;;;;;;;13.77;3.75;;;21.30;99.90;;;;;;5092568;28;20051;-77
2022/10/01 08:38:14;;;;;;;10.45;2.70;;;22.80;99.90;;;;;;5074796;28;20040;-77
2022/10/01 08:40:50;;;;;;;5.60;1.92;;;23.90;99.90;;;;;;5057648;28;20097;-78
2022/10/01 08:43:31;;;;;;;10.45;2.10;;;24.60;99.90;;;;;;5074387;28;20150;-77
2022/10/01 08:46:01;;;;;;;10.13;2.38;;;25.50;99.90;;;;;;5074313;28;20280;-77
2022/10/01 08:48:42;;;;;;;8.20;2.15;;;26.20;99.90;;;;;;5094657;28;20559;-78
2022/10/01 08:51:34;;;;;;;8.10;2.03;;;24.80;99.90;;;;;;5096360;28;20076;-77
2022/10/01 08:54:15;;;;;;;12.95;2.47;;;23.60;99.90;;;;;;5069590;28;20079;-78
2022/10/01 08:56:45;;;;;;;8.52;2.13;;;22.40;99.90;;;;;;5078418;28;20051;-76
2022/10/01 08:59:46;;;;;;;12.82;2.40;;;21.80;99.90;;;;;;5103550;28;20544;-76
2022/10/01 09:02:18;;;;;;;13.30;2.53;;;21.30;99.90;;;;;;5080932;28;20051;-76
2022/10/01 09:04:46;;;;;;;9.55;2.45;;;20.70;99.90;;;;;;5114744;28;20046;-74
2022/10/01 09:07:32;;;;;;;17.48;2.80;;;20.20;99.90;;;;;;5095130;28;20100;-74
2022/10/01 09:10:16;;;;;;;;;;;19.80;99.90;;;;;;5093187;28;20092;-74
2022/10/01 09:13:33;;;;;;;9.93;2.85;;;19.50;99.90;;;;;;5074511;28;20038;-74
2022/10/01 09:15:59;;;;;;;;;;;19.20;99.90;;;;;;5050861;28;20746;-73
2022/10/01 09:18:41;;;;;;;;;;;19.00;99.90;;;;;;5075552;28;19923;-74
2022/10/01 09:21:35;;;;;;;9.82;2.40;;;19.00;99.90;;;;;;5093823;28;19931;-74
2022/10/01 09:24:19;;;;;;;9.90;2.40;;;19.10;99.90;;;;;;5074755;28;20044;-74
2022/10/01 09:26:49;;;;;;;11.15;2.40;;;19.20;99.90;;;;;;5078092;28;20051;-77
2022/10/01 09:29:27;;;;;;;13.30;2.90;;;19.40;99.90;;;;;;5098327;28;20048;-77
2022/10/01 09:31:54;;;;;;;8.77;2.30;;;19.80;99.90;;;;;;5115809;28;20063;-77
2022/10/01 09:34:43;;;;;;;11.10;2.67;;;19.90;99.90;;;;;;5094891;28;20389;-77
2022/10/01 09:37:29;;;;;;;11.60;2.47;;;20.00;99.90;;;;;;5075034;28;20556;-77
2022/10/01 09:40:20;;;;;;;13.10;2.40;;;20.10;99.90;;;;;;5094757;28;20124;-77
2022/10/01 09:42:46;;;;;;;8.65;1.88;;;20.40;99.90;;;;;;5080796;28;20079;-77
2022/10/01 09:45:17;;;;;;;9.30;2.08;;;20.40;99.90;;;;;;5095725;28;20044;-76
2022/10/01 09:47:47;;;;;;;7.00;1.90;;;20.30;99.90;;;;;;5076929;28;20119;-76
2022/10/01 09:50:18;;;;;;;8.80;1.90;;;20.20;99.90;;;;;;5088707;28;20040;-76
2022/10/01 09:52:48;;;;;;;8.50;1.70;;;20.40;99.90;;;;;;5095442;28;20093;-76
2022/10/01 09:55:35;;;;;;;7.63;1.60;;;20.30;99.90;;;;;;5095826;28;20040;-76
2022/10/01 09:58:27;;;;;;;5.80;1.88;;;20.10;99.90;;;;;;5077490;28;20438;-76
2022/10/01 10:00:54;;;;;;;8.43;1.70;;;19.60;99.90;;;;;;5091819;28;20067;-76
2022/10/01 10:03:29;;;;;;;6.65;1.70;;;19.50;99.90;;;;;;5059996;28;20047;-76
2022/10/01 10:05:58;;;;;;;6.05;1.60;;;18.90;99.90;;;;;;5075685;28;20043;-76
2022/10/01 10:08:34;;;;;;;5.00;1.50;;;19.00;99.90;;;;;;5095048;28;20067;-75
2022/10/01 10:11:10;;;;;;;8.55;2.05;;;18.10;99.90;;;;;;5085755;28;20043;-75
2022/10/01 10:13:47;;;;;;;6.57;2.05;;;17.70;99.90;;;;;;5096793;28;20036;-76
2022/10/01 10:16:25;;;;;;;7.78;1.95;;;17.40;99.90;;;;;;5093314;28;20479;-75
2022/10/01 10:18:55;;;;;;;9.00;2.00;;;16.90;99.90;;;;;;5076645;28;20131;-76
2022/10/01 10:21:24;;;;;;;6.53;2.05;;;16.70;99.90;;;;;;5094254;28;20044;-75
2022/10/01 10:23:56;;;;;;;7.55;2.00;;;16.60;99.90;;;;;;5114217;28;20376;-75
2022/10/01 10:26:28;;;;;;;6.72;1.85;;;16.40;99.90;;;;;;5115391;28;20175;-75
2022/10/01 10:28:57;;;;;;;5.60;1.50;;;16.60;99.90;;;;;;5097306;28;20051;-75
2022/10/01 10:31:28;;;;;;;5.68;2.15;;;16.10;99.90;;;;;;5113837;28;20129;-75
2022/10/01 10:34:25;;;;;;;7.85;1.85;;;15.70;99.90;;;;;;5115296;28;20108;-75
2022/10/01 10:36:56;;;;;;;6.07;1.60;;;16.30;99.90;;;;;;5096994;28;20580;-75
2022/10/01 10:39:32;;;;;;;6.45;1.73;;;15.30;99.90;;;;;;5115438;28;20157;-75
2022/10/01 10:42:01;;;;;;;5.03;1.40;;;15.20;99.90;;;;;;5114824;28;20428;-75
2022/10/01 10:44:35;;;;;;;6.95;1.80;;;15.30;99.90;;;;;;5096789;28;20047;-74
2022/10/01 10:47:04;;;;;;;5.30;1.40;;;15.60;99.90;;;;;;5114772;28;20122;-75
2022/10/01 10:49:32;;;;;;;5.38;1.52;;;16.10;99.90;;;;;;5096970;28;20055;-75
2022/10/01 10:51:59;;;;;;;3.03;1.42;;;15.30;99.90;;;;;;5114634;28;20099;-75
2022/10/01 10:54:36;;;;;;;5.32;1.35;;;15.30;99.90;;;;;;5114848;28;20500;-75
2022/10/01 10:57:19;;;;;;;4.57;1.50;;;15.30;99.90;;;;;;5079189;28;20058;-75
2022/10/01 10:59:58;;;;;;;5.32;1.45;;;15.40;99.90;;;;;;5100906;28;20051;-75
2022/10/01 11:02:25;;;;;;;5.53;1.38;;;15.30;99.90;;;;;;5059451;28;20438;-75
2022/10/01 11:04:53;;;;;;;4.00;1.38;;;15.90;99.90;;;;;;5094283;28;20061;-75
2022/10/01 11:07:22;;;;;;;5.32;1.40;;;15.60;99.90;;;;;;5075678;28;20083;-74
2022/10/01 11:09:53;;;;;;;4.10;1.40;;;15.60;99.90;;;;;;5094028;28;20112;-75
2022/10/01 11:12:30;;;;;;;6.65;1.50;;;16.30;99.90;;;;;;5092703;28;20040;-75
2022/10/01 11:15:09;;;;;;;5.07;1.58;;;15.50;99.90;;;;;;5080078;28;20040;-75
2022/10/01 11:17:44;;;;;;;4.47;1.40;;;15.50;99.90;;;;;;5075583;28;20044;-75
2022/10/01 11:20:35;;;;;;;6.82;1.70;;;15.40;99.90;;;;;;5091928;28;20075;-76
2022/10/01 11:23:38;;;;;;;5.65;1.80;;;15.50;99.90;;;;;;5075723;28;20207;-76
2022/10/01 11:26:29;;;;;;;5.13;1.50;;;16.20;99.90;;;;;;5071470;28;20051;-75
2022/10/01 11:29:13;;;;;;;7.07;2.10;;;17.00;99.90;;;;;;5075773;28;20400;-75
2022/10/01 11:31:39;;;;;;;6.25;1.88;;;17.60;99.90;;;;;;5074436;28;20059;-75
2022/10/01 11:34:30;;;;;;;3.47;1.50;;;18.10;99.90;;;;;;5074008;28;20485;-75
2022/10/01 11:37:20;;;;;;;5.35;1.58;;;18.50;99.90;;;;;;5075155;28;20071;-74
2022/10/01 11:39:48;;;;;;;7.97;1.80;;;18.90;99.90;;;;;;5073250;28;20047;-76
2022/10/01 11:42:20;;;;;;;6.90;1.58;;;19.30;99.90;;;;;;5074208;28;20044;-76
2022/10/01 11:45:00;;;;;;;4.15;1.40;;;19.90;99.90;;;;;;5093480;28;20040;-76
2022/10/01 11:47:32;;;;;;;7.60;1.88;;;20.00;99.90;;;;;;5094213;28;20048;-76
2022/10/01 11:50:17;;;;;;;5.70;1.70;;;20.10;99.90;;;;;;5095635;28;20055;-76
2022/10/01 11:52:59;;;;;;;7.43;2.17;;;20.20;99.90;;;;;;5113425;28;20051;-76
2022/10/01 11:58:56;;;;;;;10.40;2.78;;;19.90;99.90;;;;;;5093572;28;20043;-76
2022/10/01 12:01:27;;;;;;;11.00;2.80;;;19.60;99.90;;;;;;5112416;28;20040;-76
2022/10/01 12:03:52;;;;;;;11.68;2.55;;;19.30;99.90;;;;;;5095044;28;20127;-76
2022/10/01 12:06:39;;;;;;;10.18;2.47;;;19.30;99.90;;;;;;5113130;28;20189;-76
2022/10/01 12:09:14;;;;;;;9.50;2.47;;;19.20;99.90;;;;;;5095652;28;20066;-76
2022/10/01 12:11:51;;;;;;;11.43;2.60;;;19.50;99.90;;;;;;5077903;28;20462;-76
2022/10/01 12:14:28;;;;;;;11.93;2.78;;;19.20;99.90;;;;;;5113169;28;20054;-76
2022/10/01 12:17:14;;;;;;;12.98;3.10;;;19.00;99.90;;;;;;5113007;28;20040;-75
2022/10/01 12:19:45;;;;;;;10.43;2.65;;;19.00;99.90;;;;;;5095064;28;20071;-75
2022/10/01 12:22:21;;;;;;;10.45;2.40;;;18.90;99.90;;;;;;5112650;28;20083;-75
2022/10/01 12:24:47;;;;;;;14.93;3.10;;;18.90;99.90;;;;;;5094813;28;20032;-76
2022/10/01 12:27:25;;;;;;;10.98;2.28;;;19.30;99.90;;;;;;5094466;28;20066;-76
2022/10/01 12:30:11;;;;;;;15.13;2.72;;;19.60;99.90;;;;;;5094804;28;20036;-76
2022/10/01 12:32:56;;;;;;;7.68;2.03;;;19.80;99.90;;;;;;5111872;28;20078;-76
2022/10/01 12:35:39;;;;;;;15.18;2.35;;;19.60;99.90;;;;;;5094729;28;20553;-76
2022/10/01 12:38:16;;;;;;;11.63;2.00;;;19.50;99.90;;;;;;5081584;28;20071;-76
2022/10/01 12:41:08;;;;;;;8.30;2.30;;;19.90;99.90;;;;;;5092342;28;20555;-76
2022/10/01 12:43:57;;;;;;;13.73;2.38;;;20.40;99.90;;;;;;5092470;28;20083;-76
2022/10/01 12:46:46;;;;;;;13.27;2.10;;;21.20;99.90;;;;;;5092041;28;20044;-76
2022/10/01 12:49:21;;;;;;;9.20;2.25;;;21.90;99.90;;;;;;5074800;28;20044;-76
2022/10/01 12:51:51;;;;;;;9.27;1.95;;;22.00;99.90;;;;;;5073928;28;20055;-75
2022/10/01 12:54:35;;;;;;;9.60;2.13;;;21.40;99.90;;;;;;5057517;28;20051;-75
2022/10/01 12:57:36;;;;;;;10.13;1.88;;;20.90;99.90;;;;;;5092069;28;20044;-76
2022/10/01 13:00:21;;;;;;;8.02;1.80;;;20.10;99.90;;;;;;5074595;28;20048;-76
2022/10/01 13:03:14;;;;;;;8.03;1.63;;;19.50;99.90;;;;;;5073849;28;20085;-75
2022/10/01 13:05:42;;;;;;;8.45;2.03;;;18.80;99.90;;;;;;5097250;28;20796;-73
2022/10/01 13:08:17;;;;;;;6.47;1.92;;;18.50;99.90;;;;;;5112589;28;20067;-76